Time,TemperatureF,DewpointF,PressureIn,WindDirection,WindDirectionDegrees,WindSpeedMPH,WindSpeedGustMPH,Humidity,HourlyPrecipIn,Conditions,Clouds,dailyrainin,SoftwareType,DateUTC
2013-01-31 00:03:00,39.8,33.8,29.78,West,270,3.0,-999.0,79,0.01,,,0.00,Wunderground v.1.15,2013-01-31 05:03:00,
2013-01-31 00:08:00,39.7,33.7,29.79,West,270,4.0,-999.0,79,0.01,,,0.00,Wunderground v.1.15,2013-01-31 05:08:00,
2013-01-31 00:13:00,39.6,33.3,29.79,WNW,293,3.0,-999.0,78,0.01,,,0.00,Wunderground v.1.15,2013-01-31 05:13:00,
2013-01-31 00:18:00,39.5,32.6,29.79,West,270,3.0,-999.0,76,0.01,,,0.00,Wunderground v.1.15,2013-01-31 05:18:00,
2013-01-31 00:23:00,39.4,32.8,29.80,WNW,293,4.0,-999.0,77,0.01,,,0.00,Wunderground v.1.15,2013-01-31 05:23:00,
2013-01-31 00:28:00,39.3,32.0,29.80,WNW,293,3.0,-999.0,75,0.00,,,0.00,Wunderground v.1.15,2013-01-31 05:28:00,
2013-01-31 00:33:00,39.2,32.3,29.81,WNW,293,3.0,-999.0,76,0.00,,,0.00,Wunderground v.1.15,2013-01-31 05:33:00,
2013-01-31 00:38:00,39.1,31.5,29.81,West,270,5.0,-999.0,74,0.00,,,0.00,Wunderground v.1.15,2013-01-31 05:38:00,
2013-01-31 00:43:00,39.0,31.7,29.82,WNW,293,3.0,-999.0,75,0.00,,,0.00,Wunderground v.1.15,2013-01-31 05:43:00,
2013-01-31 00:48:00,38.9,32.0,29.82,WNW,293,3.0,-999.0,76,0.00,,,0.00,Wunderground v.1.15,2013-01-31 05:48:00,
2013-01-31 00:53:00,38.8,30.9,29.82,West,270,3.0,-999.0,73,0.00,,,0.00,Wunderground v.1.15,2013-01-31 05:53:00,
2013-01-31 00:58:00,38.7,30.8,29.82,WNW,293,3.0,-999.0,73,0.00,,,0.00,Wunderground v.1.15,2013-01-31 05:58:00,
2013-01-31 01:03:00,38.6,30.7,29.83,WNW,293,3.0,-999.0,73,0.00,,,0.00,Wunderground v.1.15,2013-01-31 06:03:00,
2013-01-31 01:08:00,38.4,30.5,29.83,West,270,5.0,-999.0,73,0.00,,,0.00,Wunderground v.1.15,2013-01-31 06:08:00,
2013-01-31 01:13:00,38.3,30.7,29.84,WNW,293,5.0,-999.0,74,0.00,,,0.00,Wunderground v.1.15,2013-01-31 06:13:00,
2013-01-31 01:18:00,38.2,30.6,29.84,West,270,6.0,-999.0,74,0.00,,,0.00,Wunderground v.1.15,2013-01-31 06:18:00,
2013-01-31 01:23:00,38.0,29.8,29.84,WNW,293,6.0,-999.0,72,0.00,,,0.00,Wunderground v.1.15,2013-01-31 06:23:00,
2013-01-31 01:28:00,37.9,29.7,29.85,West,270,5.0,-999.0,72,0.00,,,0.00,Wunderground v.1.15,2013-01-31 06:28:00,
2013-01-31 01:33:00,37.7,29.8,29.86,West,270,4.0,-999.0,73,0.00,,,0.00,Wunderground v.1.15,2013-01-31 06:33:00,
2013-01-31 01:38:00,37.6,29.4,29.86,West,270,4.0,-999.0,72,0.00,,,0.00,Wunderground v.1.15,2013-01-31 06:38:00,
2013-01-31 01:43:00,37.5,29.6,29.86,West,270,2.0,-999.0,73,0.00,,,0.00,Wunderground v.1.15,2013-01-31 06:43:00,
2013-01-31 01:48:00,37.4,29.5,29.86,NW,315,4.0,-999.0,73,0.00,,,0.00,Wunderground v.1.15,2013-01-31 06:48:00,
2013-01-31 01:53:00,37.3,30.1,29.87,West,270,3.0,-999.0,75,0.00,,,0.00,Wunderground v.1.15,2013-01-31 06:53:00,
2013-01-31 01:58:00,37.2,29.0,29.87,West,270,3.0,-999.0,72,0.00,,,0.00,Wunderground v.1.15,2013-01-31 06:58:00,
2013-01-31 02:03:00,37.1,28.9,29.87,West,270,4.0,-999.0,72,0.00,,,0.00,Wunderground v.1.15,2013-01-31 07:03:00,
2013-01-31 02:08:00,37.1,28.9,29.87,West,270,4.0,-999.0,72,0.00,,,0.00,Wunderground v.1.15,2013-01-31 07:08:00,
2013-01-31 02:13:00,37.0,28.8,29.88,WSW,248,4.0,-999.0,72,0.00,,,0.00,Wunderground v.1.15,2013-01-31 07:13:00,
2013-01-31 02:18:00,36.9,28.7,29.88,NW,315,4.0,-999.0,72,0.00,,,0.00,Wunderground v.1.15,2013-01-31 07:18:00,
2013-01-31 02:23:00,36.9,29.4,29.88,West,270,3.0,-999.0,74,0.00,,,0.00,Wunderground v.1.15,2013-01-31 07:23:00,
2013-01-31 02:28:00,36.9,29.4,29.89,WNW,293,4.0,-999.0,74,0.00,,,0.00,Wunderground v.1.15,2013-01-31 07:28:00,
2013-01-31 02:33:00,36.8,29.0,29.89,West,270,5.0,-999.0,73,0.00,,,0.00,Wunderground v.1.15,2013-01-31 07:33:00,
2013-01-31 02:38:00,36.7,29.5,29.90,WNW,293,3.0,-999.0,75,0.00,,,0.00,Wunderground v.1.15,2013-01-31 07:38:00,
2013-01-31 02:43:00,36.7,29.5,29.90,NW,315,2.0,-999.0,75,0.00,,,0.00,Wunderground v.1.15,2013-01-31 07:43:00,
2013-01-31 02:48:00,36.6,29.4,29.90,West,270,2.0,-999.0,75,0.00,,,0.00,Wunderground v.1.15,2013-01-31 07:48:00,
2013-01-31 02:53:00,36.5,29.7,29.90,WNW,293,3.0,-999.0,76,0.00,,,0.00,Wunderground v.1.15,2013-01-31 07:53:00,
2013-01-31 02:58:00,36.5,29.3,29.90,WNW,293,4.0,-999.0,75,0.00,,,0.00,Wunderground v.1.15,2013-01-31 07:58:00,
2013-01-31 03:03:00,36.4,28.9,29.91,WNW,293,4.0,-999.0,74,0.00,,,0.00,Wunderground v.1.15,2013-01-31 08:03:00,
2013-01-31 03:08:00,36.3,28.5,29.91,East,90,2.0,-999.0,73,0.00,,,0.00,Wunderground v.1.15,2013-01-31 08:08:00,
2013-01-31 03:13:00,36.2,27.7,29.91,West,270,2.0,-999.0,71,0.00,,,0.00,Wunderground v.1.15,2013-01-31 08:13:00,
2013-01-31 03:18:00,36.2,27.4,29.91,WNW,293,5.0,-999.0,70,0.00,,,0.00,Wunderground v.1.15,2013-01-31 08:18:00,
2013-01-31 03:23:00,36.2,28.0,29.91,WNW,293,2.0,-999.0,72,0.00,,,0.00,Wunderground v.1.15,2013-01-31 08:23:00,
2013-01-31 03:28:00,36.2,27.7,29.91,West,270,3.0,-999.0,71,0.00,,,0.00,Wunderground v.1.15,2013-01-31 08:28:00,
2013-01-31 03:33:00,36.1,27.9,29.91,WSW,248,2.0,-999.0,72,0.00,,,0.00,Wunderground v.1.15,2013-01-31 08:33:00,
2013-01-31 03:38:00,36.1,27.9,29.90,WNW,293,1.0,-999.0,72,0.00,,,0.00,Wunderground v.1.15,2013-01-31 08:38:00,
2013-01-31 03:43:00,36.1,27.9,29.91,West,270,2.0,-999.0,72,0.00,,,0.00,Wunderground v.1.15,2013-01-31 08:43:00,
2013-01-31 03:48:00,36.1,28.9,29.91,WNW,293,1.0,-999.0,75,0.00,,,0.00,Wunderground v.1.15,2013-01-31 08:48:00,
2013-01-31 03:53:00,36.1,28.9,29.91,NW,315,1.0,-999.0,75,0.00,,,0.00,Wunderground v.1.15,2013-01-31 08:53:00,
2013-01-31 03:58:00,36.0,29.8,29.91,NW,315,1.0,-999.0,78,0.00,,,0.00,Wunderground v.1.15,2013-01-31 08:58:00,
2013-01-31 04:03:00,36.0,29.5,29.92,WNW,293,1.0,-999.0,77,0.00,,,0.00,Wunderground v.1.15,2013-01-31 09:03:00,
2013-01-31 04:08:00,36.0,28.8,29.92,West,270,1.0,-999.0,75,0.00,,,0.00,Wunderground v.1.15,2013-01-31 09:08:00,
2013-01-31 04:13:00,35.9,29.4,29.92,West,270,1.0,-999.0,77,0.00,,,0.00,Wunderground v.1.15,2013-01-31 09:13:00,
2013-01-31 04:18:00,35.9,28.7,29.92,WNW,293,0.0,-999.0,75,0.00,,,0.00,Wunderground v.1.15,2013-01-31 09:18:00,
2013-01-31 04:23:00,35.9,29.4,29.92,NW,315,1.0,-999.0,77,0.00,,,0.00,Wunderground v.1.15,2013-01-31 09:23:00,
2013-01-31 04:28:00,35.8,28.0,29.91,South,180,2.0,-999.0,73,0.00,,,0.00,Wunderground v.1.15,2013-01-31 09:28:00,
2013-01-31 04:33:00,35.8,28.6,29.91,WNW,293,2.0,-999.0,75,0.00,,,0.00,Wunderground v.1.15,2013-01-31 09:33:00,
2013-01-31 04:38:00,35.8,28.3,29.92,WNW,293,2.0,-999.0,74,0.00,,,0.00,Wunderground v.1.15,2013-01-31 09:38:00,
2013-01-31 04:43:00,35.8,28.0,29.92,WNW,293,2.0,-999.0,73,0.00,,,0.00,Wunderground v.1.15,2013-01-31 09:43:00,
2013-01-31 04:48:00,35.8,27.3,29.92,West,270,4.0,-999.0,71,0.00,,,0.00,Wunderground v.1.15,2013-01-31 09:48:00,
2013-01-31 04:53:00,35.8,26.6,29.92,WSW,248,2.0,-999.0,69,0.00,,,0.00,Wunderground v.1.15,2013-01-31 09:53:00,
2013-01-31 04:58:00,35.7,26.5,29.92,NW,315,2.0,-999.0,69,0.00,,,0.00,Wunderground v.1.15,2013-01-31 09:58:00,
2013-01-31 05:03:00,35.7,26.2,29.93,WNW,293,1.0,-999.0,68,0.00,,,0.00,Wunderground v.1.15,2013-01-31 10:03:00,
2013-01-31 05:08:00,35.6,26.1,29.93,WNW,293,2.0,-999.0,68,0.00,,,0.00,Wunderground v.1.15,2013-01-31 10:08:00,
2013-01-31 05:13:00,35.6,26.8,29.94,West,270,1.0,-999.0,70,0.00,,,0.00,Wunderground v.1.15,2013-01-31 10:13:00,
2013-01-31 05:18:00,35.5,27.4,29.93,West,270,1.0,-999.0,72,0.00,,,0.00,Wunderground v.1.15,2013-01-31 10:18:00,
2013-01-31 05:23:00,35.5,27.4,29.93,West,270,1.0,-999.0,72,0.00,,,0.00,Wunderground v.1.15,2013-01-31 10:23:00,
2013-01-31 05:28:00,35.5,27.4,29.93,West,270,1.0,-999.0,72,0.00,,,0.00,Wunderground v.1.15,2013-01-31 10:28:00,
2013-01-31 05:38:00,35.5,27.0,29.93,West,270,1.0,-999.0,71,0.00,,,0.00,Wunderground v.1.15,2013-01-31 10:38:00,
2013-01-31 05:45:00,35.5,27.7,29.93,NNW,327,0.0,0.0,73,0.00,,,0.00,Wunderground v.1.15,2013-01-31 10:45:00,
2013-01-31 05:50:00,35.4,27.9,29.93,SE,140,0.0,0.0,74,0.00,,,0.00,Wunderground v.1.15,2013-01-31 10:50:00,
2013-01-31 05:55:00,35.3,27.5,29.93,West,267,0.0,2.0,73,0.00,,,0.00,Wunderground v.1.15,2013-01-31 10:55:00,
2013-01-31 06:00:00,35.3,27.2,29.93,WSW,258,2.0,4.0,72,0.00,,,0.00,Wunderground v.1.15,2013-01-31 11:00:00,
2013-01-31 06:09:00,35.3,26.8,29.94,SSE,160,2.0,2.0,71,0.00,,,0.00,Wunderground v.1.15,2013-01-31 11:09:00,
2013-01-31 06:14:00,35.2,26.7,29.94,NW,325,1.0,2.0,71,0.00,,,0.00,Wunderground v.1.15,2013-01-31 11:14:00,
2013-01-31 06:20:00,35.2,27.4,29.95,NW,326,0.0,0.0,73,0.00,,,0.00,Wunderground v.1.15,2013-01-31 11:20:00,
2013-01-31 06:25:00,35.2,28.1,29.95,ESE,110,0.0,0.0,75,0.00,,,0.00,Wunderground v.1.15,2013-01-31 11:25:00,
2013-01-31 06:30:00,35.1,27.3,29.95,SSE,158,1.0,1.0,73,0.00,,,0.00,Wunderground v.1.15,2013-01-31 11:30:00,
2013-01-31 06:35:00,35.0,26.9,29.95,South,174,0.0,1.0,72,0.00,,,0.00,Wunderground v.1.15,2013-01-31 11:35:00,
2013-01-31 06:40:00,34.9,26.8,29.96,West,263,1.0,1.0,72,0.00,,,0.00,Wunderground v.1.15,2013-01-31 11:40:00,
2013-01-31 06:45:00,34.8,27.0,29.96,SSW,199,1.0,1.0,73,0.00,,,0.00,Wunderground v.1.15,2013-01-31 11:45:00,
2013-01-31 06:54:00,34.6,26.5,29.97,SSE,162,1.0,1.0,72,0.00,,,0.00,Wunderground v.1.15,2013-01-31 11:54:00,
2013-01-31 07:00:00,34.6,27.2,29.97,WNW,303,0.0,3.0,74,0.00,,,0.00,Wunderground v.1.15,2013-01-31 12:00:00,
2013-01-31 07:10:00,34.4,25.6,29.97,North,9,2.0,2.0,70,0.00,,,0.00,Wunderground v.1.15,2013-01-31 12:10:00,
2013-01-31 07:15:00,34.2,24.7,29.98,SW,221,2.0,2.0,68,0.00,,,0.00,Wunderground v.1.15,2013-01-31 12:15:00,
2013-01-31 07:20:00,34.1,25.0,29.98,West,260,2.0,4.0,69,0.00,,,0.00,Wunderground v.1.15,2013-01-31 12:20:00,
2013-01-31 07:29:00,33.9,25.8,29.99,NW,316,1.0,1.0,72,0.00,,,0.00,Wunderground v.1.15,2013-01-31 12:29:00,
2013-01-31 07:34:00,33.9,26.2,29.99,SE,131,0.0,2.0,73,0.00,,,0.00,Wunderground v.1.15,2013-01-31 12:34:00,
2013-01-31 07:40:00,33.8,26.4,29.99,SSW,192,0.0,1.0,74,0.00,,,0.00,Wunderground v.1.15,2013-01-31 12:40:00,
2013-01-31 07:50:00,33.6,26.5,29.99,WSW,256,0.0,0.0,75,0.00,,,0.00,Wunderground v.1.15,2013-01-31 12:50:00,
2013-01-31 07:55:00,33.6,27.2,30.00,WSW,256,0.0,2.0,77,0.00,,,0.00,Wunderground v.1.15,2013-01-31 12:55:00,
2013-01-31 08:00:00,33.5,26.4,30.00,NW,320,1.0,1.0,75,0.00,,,0.00,Wunderground v.1.15,2013-01-31 13:00:00,
2013-01-31 08:09:00,33.5,27.7,30.01,WNW,291,0.0,1.0,79,0.00,,,0.00,Wunderground v.1.15,2013-01-31 13:09:00,
2013-01-31 08:14:00,33.5,27.7,30.01,WNW,291,0.0,1.0,79,0.00,,,0.00,Wunderground v.1.15,2013-01-31 13:14:00,
2013-01-31 08:24:00,33.6,28.1,30.01,WNW,291,0.0,0.0,80,0.00,,,0.00,Wunderground v.1.15,2013-01-31 13:24:00,
2013-01-31 08:30:00,33.7,27.6,30.01,South,173,0.0,0.0,78,0.00,,,0.00,Wunderground v.1.15,2013-01-31 13:30:00,
2013-01-31 08:35:00,33.9,27.1,30.02,South,184,0.0,0.0,76,0.00,,,0.00,Wunderground v.1.15,2013-01-31 13:35:00,
2013-01-31 08:40:00,34.1,27.6,30.02,WNW,286,0.0,4.0,77,0.00,,,0.00,Wunderground v.1.15,2013-01-31 13:40:00,
2013-01-31 08:45:00,34.3,27.2,30.02,WNW,293,1.0,4.0,75,0.00,,,0.00,Wunderground v.1.15,2013-01-31 13:45:00,
2013-01-31 08:55:00,34.8,27.7,30.02,WNW,296,1.0,3.0,75,0.00,,,0.00,Wunderground v.1.15,2013-01-31 13:55:00,
2013-01-31 09:00:00,35.0,26.9,30.03,SW,235,1.0,1.0,72,0.00,,,0.00,Wunderground v.1.15,2013-01-31 14:00:00,
2013-01-31 09:10:00,35.4,27.6,30.03,West,262,1.0,2.0,73,0.00,,,0.00,Wunderground v.1.15,2013-01-31 14:10:00,
2013-01-31 09:15:00,35.6,27.1,30.03,West,279,1.0,4.0,71,0.00,,,0.00,Wunderground v.1.15,2013-01-31 14:15:00,
2013-01-31 09:25:00,35.8,27.3,30.04,NNW,333,4.0,7.0,71,0.00,,,0.00,Wunderground v.1.15,2013-01-31 14:25:00,
2013-01-31 09:35:00,35.8,27.0,30.04,ESE,123,2.0,2.0,70,0.00,,,0.00,Wunderground v.1.15,2013-01-31 14:35:00,
2013-01-31 09:40:00,35.9,26.7,30.04,WSW,237,3.0,3.0,69,0.00,,,0.00,Wunderground v.1.15,2013-01-31 14:40:00,
2013-01-31 09:45:00,36.1,27.6,30.05,NW,310,2.0,3.0,71,0.00,,,0.00,Wunderground v.1.15,2013-01-31 14:45:00,
2013-01-31 09:50:00,36.3,26.7,30.05,NW,314,2.0,2.0,68,0.00,,,0.00,Wunderground v.1.15,2013-01-31 14:50:00,
2013-01-31 10:00:00,36.7,26.4,30.06,South,181,3.0,3.0,66,0.00,,,0.00,Wunderground v.1.15,2013-01-31 15:00:00,
2013-01-31 10:09:00,36.9,26.2,30.06,ESE,123,4.0,4.0,65,0.00,,,0.00,Wunderground v.1.15,2013-01-31 15:09:00,
2013-01-31 10:15:00,37.2,26.1,30.06,NNW,331,4.0,4.0,64,0.00,,,0.00,Wunderground v.1.15,2013-01-31 15:15:00,
2013-01-31 10:20:00,37.7,26.6,30.06,SW,222,5.0,6.0,64,0.00,,,0.00,Wunderground v.1.15,2013-01-31 15:20:00,
2013-01-31 10:25:00,38.0,26.9,30.07,SSW,208,4.0,6.0,64,0.00,,,0.00,Wunderground v.1.15,2013-01-31 15:25:00,
2013-01-31 10:30:00,38.3,26.4,30.07,WNW,300,5.0,5.0,62,0.00,,,0.00,Wunderground v.1.15,2013-01-31 15:30:00,
2013-01-31 10:39:00,38.0,26.9,30.07,West,262,4.0,4.0,64,0.00,,,0.00,Wunderground v.1.15,2013-01-31 15:39:00,
2013-01-31 10:44:00,37.9,26.8,30.08,SE,130,4.0,4.0,64,0.00,,,0.00,Wunderground v.1.15,2013-01-31 15:44:00,
2013-01-31 10:49:00,38.0,26.5,30.08,West,281,5.0,5.0,63,0.00,,,0.00,Wunderground v.1.15,2013-01-31 15:49:00,
2013-01-31 10:55:00,38.2,27.8,30.08,NNW,336,5.0,5.0,66,0.00,,,0.00,Wunderground v.1.15,2013-01-31 15:55:00,
2013-01-31 11:00:00,38.2,25.9,30.08,West,271,5.0,5.0,61,0.00,,,0.00,Wunderground v.1.15,2013-01-31 16:00:00,
2013-01-31 11:10:00,38.7,27.6,30.08,NW,304,5.0,6.0,64,0.00,,,0.00,Wunderground v.1.15,2013-01-31 16:10:00,
2013-01-31 11:15:00,39.0,26.7,30.09,West,275,4.0,6.0,61,0.00,,,0.00,Wunderground v.1.15,2013-01-31 16:15:00,
2013-01-31 11:20:00,39.3,26.2,30.08,WSW,254,5.0,6.0,59,0.00,,,0.00,Wunderground v.1.15,2013-01-31 16:20:00,
2013-01-31 11:29:00,39.9,26.7,30.08,West,271,5.0,5.0,59,0.00,,,0.00,Wunderground v.1.15,2013-01-31 16:29:00,
2013-01-31 11:34:00,40.2,27.8,30.07,East,85,5.0,5.0,61,0.00,,,0.00,Wunderground v.1.15,2013-01-31 16:34:00,
2013-01-31 11:40:00,40.5,26.9,30.07,West,266,4.0,4.0,58,0.00,,,0.00,Wunderground v.1.15,2013-01-31 16:40:00,
2013-01-31 11:50:00,41.1,27.0,30.08,North,352,4.0,4.0,57,0.00,,,0.00,Wunderground v.1.15,2013-01-31 16:50:00,
2013-01-31 11:55:00,41.3,26.3,30.08,NW,314,4.0,4.0,55,0.00,,,0.00,Wunderground v.1.15,2013-01-31 16:55:00,
2013-01-31 12:00:00,41.8,28.1,30.08,West,275,3.0,6.0,58,0.00,,,0.00,Wunderground v.1.15,2013-01-31 17:00:00,
2013-01-31 12:09:00,42.3,27.3,30.09,SW,231,4.0,4.0,55,0.00,,,0.00,Wunderground v.1.15,2013-01-31 17:09:00,
2013-01-31 12:14:00,42.5,27.9,30.09,SE,137,5.0,5.0,56,0.00,,,0.00,Wunderground v.1.15,2013-01-31 17:14:00,
2013-01-31 12:24:00,43.0,26.6,30.09,WSW,255,4.0,9.0,52,0.00,,,0.00,Wunderground v.1.15,2013-01-31 17:24:00,
2013-01-31 12:30:00,42.9,26.5,30.09,West,262,5.0,7.0,52,0.00,,,0.00,Wunderground v.1.15,2013-01-31 17:30:00,
2013-01-31 12:35:00,42.9,26.9,30.09,NW,306,6.0,7.0,53,0.00,,,0.00,Wunderground v.1.15,2013-01-31 17:35:00,
2013-01-31 12:40:00,43.2,28.5,30.09,South,191,5.0,5.0,56,0.00,,,0.00,Wunderground v.1.15,2013-01-31 17:40:00,
2013-01-31 12:45:00,43.5,27.5,30.09,WNW,290,4.0,5.0,53,0.00,,,0.00,Wunderground v.1.15,2013-01-31 17:45:00,
2013-01-31 12:54:00,44.2,26.2,30.08,SW,224,4.0,7.0,49,0.00,,,0.00,Wunderground v.1.15,2013-01-31 17:54:00,
2013-01-31 13:00:00,44.2,26.2,30.08,West,264,5.0,5.0,49,0.00,,,0.00,Wunderground v.1.15,2013-01-31 18:00:00,
2013-01-31 13:10:00,44.8,27.3,30.08,NW,315,3.0,6.0,50,0.00,,,0.00,Wunderground v.1.15,2013-01-31 18:10:00,
2013-01-31 13:15:00,45.0,27.9,30.07,WNW,292,3.0,6.0,51,0.00,,,0.00,Wunderground v.1.15,2013-01-31 18:15:00,
2013-01-31 13:20:00,45.1,26.6,30.07,WSW,254,4.0,4.0,48,0.00,,,0.00,Wunderground v.1.15,2013-01-31 18:20:00,
2013-01-31 13:29:00,45.3,26.7,30.06,NW,310,4.0,4.0,48,0.00,,,0.00,Wunderground v.1.15,2013-01-31 18:29:00,
2013-01-31 13:34:00,45.5,26.9,30.06,WNW,301,4.0,7.0,48,0.00,,,0.00,Wunderground v.1.15,2013-01-31 18:34:00,
2013-01-31 13:39:00,45.5,27.4,30.06,ESE,110,4.0,4.0,49,0.00,,,0.00,Wunderground v.1.15,2013-01-31 18:39:00,
2013-01-31 13:45:00,45.8,29.2,30.06,WSW,256,3.0,5.0,52,0.00,,,0.00,Wunderground v.1.15,2013-01-31 18:45:00,
2013-01-31 13:50:00,46.0,27.4,30.06,East,92,2.0,2.0,48,0.00,,,0.00,Wunderground v.1.15,2013-01-31 18:50:00,
2013-01-31 13:55:00,46.1,26.4,30.06,SE,133,3.0,3.0,46,0.00,,,0.00,Wunderground v.1.15,2013-01-31 18:55:00,
2013-01-31 14:00:00,46.4,26.7,30.06,East,96,3.0,3.0,46,0.00,,,0.00,Wunderground v.1.15,2013-01-31 19:00:00,
2013-01-31 14:10:00,46.6,28.4,30.05,SSW,193,3.0,3.0,49,0.00,,,0.00,Wunderground v.1.15,2013-01-31 19:10:00,
2013-01-31 14:19:00,46.9,26.6,30.05,West,271,4.0,9.0,45,0.00,,,0.00,Wunderground v.1.15,2013-01-31 19:19:00,
2013-01-31 14:25:00,46.8,26.0,30.05,NNE,30,4.0,9.0,44,0.00,,,0.00,Wunderground v.1.15,2013-01-31 19:25:00,
2013-01-31 14:30:00,46.8,28.6,30.05,WNW,296,4.0,5.0,49,0.00,,,0.00,Wunderground v.1.15,2013-01-31 19:30:00,
2013-01-31 14:35:00,46.7,25.9,30.05,NNW,347,4.0,5.0,44,0.00,,,0.00,Wunderground v.1.15,2013-01-31 19:35:00,
2013-01-31 14:40:00,46.7,25.9,30.05,NNW,327,4.0,4.0,44,0.00,,,0.00,Wunderground v.1.15,2013-01-31 19:40:00,
2013-01-31 14:49:00,46.7,25.4,30.05,WNW,301,4.0,4.0,43,0.00,,,0.00,Wunderground v.1.15,2013-01-31 19:49:00,
2013-01-31 14:54:00,46.7,26.5,30.05,North,3,4.0,4.0,45,0.00,,,0.00,Wunderground v.1.15,2013-01-31 19:54:00,
2013-01-31 15:00:00,46.6,27.9,30.06,SSE,167,3.0,3.0,48,0.00,,,0.00,Wunderground v.1.15,2013-01-31 20:00:00,
2013-01-31 15:10:00,46.4,26.2,30.06,WSW,244,3.0,5.0,45,0.00,,,0.00,Wunderground v.1.15,2013-01-31 20:10:00,
2013-01-31 15:20:00,46.0,26.4,30.05,SE,145,4.0,9.0,46,0.00,,,0.00,Wunderground v.1.15,2013-01-31 20:20:00,
2013-01-31 15:25:00,45.9,26.8,30.05,WNW,301,2.0,9.0,47,0.00,,,0.00,Wunderground v.1.15,2013-01-31 20:25:00,
2013-01-31 15:34:00,45.9,27.3,30.05,NW,314,1.0,2.0,48,0.00,,,0.00,Wunderground v.1.15,2013-01-31 20:34:00,
2013-01-31 15:39:00,45.9,26.8,30.04,West,277,1.0,1.0,47,0.00,,,0.00,Wunderground v.1.15,2013-01-31 20:39:00,
2013-01-31 15:44:00,45.9,27.3,30.04,NW,320,2.0,5.0,48,0.00,,,0.00,Wunderground v.1.15,2013-01-31 20:44:00,
2013-01-31 15:49:00,45.9,26.3,30.04,West,274,3.0,3.0,46,0.00,,,0.00,Wunderground v.1.15,2013-01-31 20:49:00,
2013-01-31 15:55:00,46.0,27.4,30.04,West,277,3.0,5.0,48,0.00,,,0.00,Wunderground v.1.15,2013-01-31 20:55:00,
2013-01-31 16:00:00,45.9,27.3,30.04,SSW,210,3.0,3.0,48,0.00,,,0.00,Wunderground v.1.15,2013-01-31 21:00:00,
2013-01-31 16:10:00,45.9,27.3,30.05,WNW,291,2.0,6.0,48,0.00,,,0.00,Wunderground v.1.15,2013-01-31 21:10:00,
2013-01-31 16:19:00,45.8,27.2,30.04,NW,317,3.0,3.0,48,0.00,,,0.00,Wunderground v.1.15,2013-01-31 21:19:00,
2013-01-31 16:24:00,45.6,27.5,30.05,WSW,254,2.0,3.0,49,0.00,,,0.00,Wunderground v.1.15,2013-01-31 21:24:00,
2013-01-31 16:29:00,45.6,27.0,30.05,SE,140,1.0,2.0,48,0.00,,,0.00,Wunderground v.1.15,2013-01-31 21:29:00,
2013-01-31 16:35:00,45.5,26.4,30.04,WSW,246,2.0,5.0,47,0.00,,,0.00,Wunderground v.1.15,2013-01-31 21:35:00,
2013-01-31 16:40:00,45.4,27.3,30.04,ESE,106,3.0,3.0,49,0.00,,,0.00,Wunderground v.1.15,2013-01-31 21:40:00,
2013-01-31 16:45:00,45.4,27.8,30.04,WSW,251,3.0,3.0,50,0.00,,,0.00,Wunderground v.1.15,2013-01-31 21:45:00,
2013-01-31 16:50:00,45.3,27.2,30.05,East,88,2.0,2.0,49,0.00,,,0.00,Wunderground v.1.15,2013-01-31 21:50:00,
2013-01-31 17:00:00,45.2,27.2,30.04,NW,308,2.0,2.0,49,0.00,,,0.00,Wunderground v.1.15,2013-01-31 22:00:00,
2013-01-31 17:09:00,44.9,27.4,30.04,West,271,2.0,2.0,50,0.00,,,0.00,Wunderground v.1.15,2013-01-31 22:09:00,
2013-01-31 17:15:00,44.8,26.8,30.04,West,266,2.0,4.0,49,0.00,,,0.00,Wunderground v.1.15,2013-01-31 22:15:00,
2013-01-31 17:20:00,44.7,27.2,30.04,West,273,2.0,2.0,50,0.00,,,0.00,Wunderground v.1.15,2013-01-31 22:20:00,
2013-01-31 17:25:00,44.6,28.5,30.04,WSW,238,1.0,2.0,53,0.00,,,0.00,Wunderground v.1.15,2013-01-31 22:25:00,
2013-01-31 17:35:00,44.3,26.3,30.04,WSW,244,2.0,2.0,49,0.00,,,0.00,Wunderground v.1.15,2013-01-31 22:35:00,
2013-01-31 17:40:00,44.2,27.7,30.04,West,281,2.0,2.0,52,0.00,,,0.00,Wunderground v.1.15,2013-01-31 22:40:00,
2013-01-31 17:49:00,43.9,27.9,30.04,WSW,251,2.0,2.0,53,0.00,,,0.00,Wunderground v.1.15,2013-01-31 22:49:00,
2013-01-31 17:54:00,43.7,26.7,30.04,West,277,2.0,2.0,51,0.00,,,0.00,Wunderground v.1.15,2013-01-31 22:54:00,
2013-01-31 18:00:00,43.6,27.6,30.04,WNW,287,2.0,2.0,53,0.00,,,0.00,Wunderground v.1.15,2013-01-31 23:00:00,
2013-01-31 18:10:00,43.3,28.2,30.03,South,183,1.0,1.0,55,0.00,,,0.00,Wunderground v.1.15,2013-01-31 23:10:00,
2013-01-31 18:15:00,43.1,28.0,30.03,SE,133,0.0,1.0,55,0.00,,,0.00,Wunderground v.1.15,2013-01-31 23:15:00,
2013-01-31 18:20:00,42.9,29.1,30.03,WSW,256,0.0,0.0,58,0.00,,,0.00,Wunderground v.1.15,2013-01-31 23:20:00,
2013-01-31 18:29:00,42.5,30.0,30.04,WSW,256,0.0,0.0,61,0.00,,,0.00,Wunderground v.1.15,2013-01-31 23:29:00,
2013-01-31 18:34:00,42.2,29.7,30.04,WSW,256,0.0,0.0,61,0.00,,,0.00,Wunderground v.1.15,2013-01-31 23:34:00,
2013-01-31 18:40:00,41.9,30.2,30.04,WSW,256,0.0,0.0,63,0.00,,,0.00,Wunderground v.1.15,2013-01-31 23:40:00,
2013-01-31 18:44:00,41.5,29.8,30.04,WSW,256,0.0,0.0,63,0.00,,,0.00,Wunderground v.1.15,2013-01-31 23:44:00,
2013-01-31 18:50:00,41.0,30.9,30.04,WSW,256,0.0,0.0,67,0.00,,,0.00,Wunderground v.1.15,2013-01-31 23:50:00,
2013-01-31 18:55:00,40.6,30.5,30.05,WSW,256,0.0,0.0,67,0.00,,,0.00,Wunderground v.1.15,2013-01-31 23:55:00,
2013-01-31 19:00:00,40.1,30.4,30.05,WSW,256,0.0,0.0,68,0.00,,,0.00,Wunderground v.1.15,2013-02-01 00:00:00,
2013-01-31 19:09:00,39.3,30.0,30.05,WSW,256,0.0,0.0,69,0.00,,,0.00,Wunderground v.1.15,2013-02-01 00:09:00,
2013-01-31 19:14:00,38.8,30.2,30.06,WSW,256,0.0,0.0,71,0.00,,,0.00,Wunderground v.1.15,2013-02-01 00:14:00,
2013-01-31 19:24:00,38.0,30.1,30.06,WSW,256,0.0,0.0,73,0.00,,,0.00,Wunderground v.1.15,2013-02-01 00:24:00,
2013-01-31 19:29:00,37.6,29.7,30.06,WSW,256,0.0,0.0,73,0.00,,,0.00,Wunderground v.1.15,2013-02-01 00:29:00,
2013-01-31 19:35:00,37.2,29.7,30.07,WSW,256,0.0,0.0,74,0.00,,,0.00,Wunderground v.1.15,2013-02-01 00:35:00,
2013-01-31 19:40:00,36.9,29.4,30.07,WSW,256,0.0,0.0,74,0.00,,,0.00,Wunderground v.1.15,2013-02-01 00:40:00,
2013-01-31 19:45:00,36.6,29.4,30.07,WSW,256,0.0,0.0,75,0.00,,,0.00,Wunderground v.1.15,2013-02-01 00:45:00,
2013-01-31 19:55:00,35.9,29.4,30.07,WSW,256,0.0,0.0,77,0.00,,,0.00,Wunderground v.1.15,2013-02-01 00:55:00,
2013-01-31 20:04:00,35.3,29.1,30.07,WSW,256,0.0,0.0,78,0.00,,,0.00,Wunderground v.1.15,2013-02-01 01:04:00,
2013-01-31 20:09:00,35.1,29.2,30.07,WSW,256,0.0,0.0,79,0.00,,,0.00,Wunderground v.1.15,2013-02-01 01:09:00,
2013-01-31 20:15:00,34.8,29.0,30.07,WSW,256,0.0,0.0,79,0.00,,,0.00,Wunderground v.1.15,2013-02-01 01:15:00,
2013-01-31 20:20:00,34.6,28.8,30.07,WSW,256,0.0,0.0,79,0.00,,,0.00,Wunderground v.1.15,2013-02-01 01:20:00,
2013-01-31 20:25:00,34.4,28.9,30.07,WSW,256,0.0,0.0,80,0.00,,,0.00,Wunderground v.1.15,2013-02-01 01:25:00,
2013-01-31 20:30:00,34.1,28.6,30.06,WSW,256,0.0,0.0,80,0.00,,,0.00,Wunderground v.1.15,2013-02-01 01:30:00,
2013-01-31 20:35:00,33.9,28.7,30.06,WSW,256,0.0,0.0,81,0.00,,,0.00,Wunderground v.1.15,2013-02-01 01:35:00,
2013-01-31 20:40:00,33.7,29.1,30.06,WSW,256,0.0,0.0,83,0.00,,,0.00,Wunderground v.1.15,2013-02-01 01:40:00,
2013-01-31 20:49:00,33.2,28.9,30.06,WSW,256,0.0,0.0,84,0.00,,,0.00,Wunderground v.1.15,2013-02-01 01:49:00,
2013-01-31 20:54:00,32.9,28.9,30.06,WSW,256,0.0,0.0,85,0.00,,,0.00,Wunderground v.1.15,2013-02-01 01:54:00,
2013-01-31 21:00:00,32.7,28.7,30.06,WSW,256,0.0,0.0,85,0.00,,,0.00,Wunderground v.1.15,2013-02-01 02:00:00,
2013-01-31 21:10:00,32.4,28.7,30.05,WSW,256,0.0,0.0,86,0.00,,,0.00,Wunderground v.1.15,2013-02-01 02:10:00,
2013-01-31 21:15:00,32.3,28.6,30.05,WSW,256,0.0,0.0,86,0.00,,,0.00,Wunderground v.1.15,2013-02-01 02:15:00,
2013-01-31 21:24:00,32.0,28.6,30.05,WSW,256,0.0,0.0,87,0.00,,,0.00,Wunderground v.1.15,2013-02-01 02:24:00,
2013-01-31 21:29:00,32.0,28.6,30.05,WSW,256,0.0,0.0,87,0.00,,,0.00,Wunderground v.1.15,2013-02-01 02:29:00,
2013-01-31 21:39:00,31.9,28.5,30.05,WSW,256,0.0,0.0,87,0.00,,,0.00,Wunderground v.1.15,2013-02-01 02:39:00,
2013-01-31 21:44:00,31.7,28.6,30.06,WSW,256,0.0,0.0,88,0.00,,,0.00,Wunderground v.1.15,2013-02-01 02:44:00,
2013-01-31 21:50:00,31.7,28.6,30.06,WSW,256,0.0,0.0,88,0.00,,,0.00,Wunderground v.1.15,2013-02-01 02:50:00,
2013-01-31 21:55:00,31.7,28.3,30.06,WSW,256,0.0,0.0,87,0.00,,,0.00,Wunderground v.1.15,2013-02-01 02:55:00,
2013-01-31 22:00:00,31.6,28.2,30.06,WSW,256,0.0,0.0,87,0.00,,,0.00,Wunderground v.1.15,2013-02-01 03:00:00,
2013-01-31 22:10:00,31.6,28.5,30.06,WSW,256,0.0,0.0,88,0.00,,,0.00,Wunderground v.1.15,2013-02-01 03:10:00,
2013-01-31 22:19:00,31.8,28.4,30.05,ESE,102,0.0,0.0,87,0.00,,,0.00,Wunderground v.1.15,2013-02-01 03:19:00,
2013-01-31 22:24:00,32.0,28.6,30.05,East,92,0.0,0.0,87,0.00,,,0.00,Wunderground v.1.15,2013-02-01 03:24:00,
2013-01-31 22:30:00,32.2,28.5,30.05,ESE,102,0.0,0.0,86,0.00,,,0.00,Wunderground v.1.15,2013-02-01 03:30:00,
2013-01-31 22:35:00,32.6,28.6,30.05,South,179,0.0,0.0,85,0.00,,,0.00,Wunderground v.1.15,2013-02-01 03:35:00,
2013-01-31 22:40:00,33.0,29.0,30.05,WSW,256,0.0,0.0,85,0.00,,,0.00,Wunderground v.1.15,2013-02-01 03:40:00,
2013-01-31 22:50:00,33.8,29.5,30.04,NW,325,0.0,1.0,84,0.00,,,0.00,Wunderground v.1.15,2013-02-01 03:50:00,
2013-01-31 22:55:00,34.3,29.4,30.04,West,280,0.0,1.0,82,0.00,,,0.00,Wunderground v.1.15,2013-02-01 03:55:00,
2013-01-31 23:04:00,35.2,30.0,30.04,SE,135,0.0,1.0,81,0.00,,,0.00,Wunderground v.1.15,2013-02-01 04:04:00,
2013-01-31 23:09:00,35.5,30.2,30.04,SSW,200,1.0,1.0,81,0.00,,,0.00,Wunderground v.1.15,2013-02-01 04:09:00,
2013-01-31 23:15:00,35.7,29.8,30.04,SSE,167,0.0,1.0,79,0.00,,,0.00,Wunderground v.1.15,2013-02-01 04:15:00,
2013-01-31 23:19:00,36.0,29.8,30.05,ESE,104,0.0,0.0,78,0.00,,,0.00,Wunderground v.1.15,2013-02-01 04:19:00,
2013-01-31 23:25:00,36.1,29.9,30.05,WSW,245,0.0,0.0,78,0.00,,,0.00,Wunderground v.1.15,2013-02-01 04:25:00,
2013-01-31 23:30:00,36.2,30.0,30.05,SSE,160,0.0,1.0,78,0.00,,,0.00,Wunderground v.1.15,2013-02-01 04:30:00,
2013-01-31 23:35:00,36.4,30.2,30.05,NE,48,0.0,1.0,78,0.00,,,0.00,Wunderground v.1.15,2013-02-01 04:35:00,
2013-01-31 23:40:00,36.5,30.3,30.05,SE,129,1.0,1.0,78,0.00,,,0.00,Wunderground v.1.15,2013-02-01 04:40:00,
2013-01-31 23:49:00,36.9,30.4,30.05,South,191,0.0,0.0,77,0.00,,,0.00,Wunderground v.1.15,2013-02-01 04:49:00,